Terminal Aerodrome Forecast
Issued by NWS

Home | Current Version | Previous Version | Text Only | Print | Product List | Glossary On
Versions: 1 2 3 4 5 6 7 8 9 10 11 12 13 14 15
000
FTUS42 KMLB 100524
TAFLEE
TAF
KLEE 100524Z 1006/1106 36007KT P6SM BKN150
     FM101500 03011KT P6SM SCT040 SCT070
     FM110000 02009KT P6SM FEW050=

USA.gov is the U.S. government's official web portal to all federal, state and local government web resources and services.